Date,TemperatureHighF,TemperatureAvgF,TemperatureLowF,DewpointHighF,DewpointAvgF,DewpointLowF,HumidityHigh,HumidityAvg,HumidityLow,PressureMaxIn,PressureMinIn,WindSpeedMaxMPH,WindSpeedAvgMPH,GustSpeedMaxMPH,PrecipitationSumIn
2013-1-1,32.5,29.8,22.6,31.5,26.6,15.0,98,88,71,30.03,29.93,6,1,8,0.00
2013-1-2,34.7,23.2,17.6,22.0,11.7,7.4,76,62,43,30.13,29.71,5,1,8,0.01
2013-1-3,40.1,25.8,14.7,21.1,13.5,6.2,74,60,43,29.97,29.86,6,1,11,0.06
2013-1-4,36.5,29.8,27.0,21.9,18.5,15.0,73,63,46,30.00,29.90,9,2,17,0.01
2013-1-5,43.0,32.0,25.5,25.0,20.1,14.4,72,61,47,30.13,29.90,4,1,10,0.01
2013-1-6,39.7,35.5,32.5,30.9,27.0,22.9,84,71,64,29.97,29.75,7,2,11,0.00
2013-1-7,37.8,32.0,25.9,27.3,24.5,19.6,81,74,56,30.20,29.97,8,1,11,0.00
2013-1-8,42.1,37.7,23.5,29.6,27.6,9.4,70,67,54,29.94,29.77,4,1,7,0.00
2013-1-9,50.4,41.4,34.9,41.9,32.8,24.4,90,72,60,30.07,29.82,8,2,13,0.02
2013-1-10,41.9,37.4,31.1,32.4,28.3,26.1,85,70,58,30.19,29.87,7,2,49,0.00
2013-1-11,54.9,48.3,40.8,54.0,42.5,26.9,99,82,53,29.87,29.58,7,2,10,0.18
2013-1-12,66.0,57.8,52.3,58.5,54.6,51.8,99,90,73,29.70,29.57,6,1,8,0.01
2013-1-13,71.4,62.7,57.4,57.5,55.0,53.6,99,77,58,29.57,29.48,8,2,15,0.07
2013-1-14,58.3,39.3,31.1,57.5,31.5,21.6,99,75,51,29.97,29.52,10,3,15,0.05
2013-1-15,33.6,30.2,25.3,27.9,21.5,19.3,87,70,62,29.97,29.67,5,2,11,0.00
2013-1-16,34.3,32.6,30.9,33.1,31.1,28.0,98,94,87,29.67,29.50,4,1,11,0.05
2013-1-17,35.6,32.8,31.1,29.1,28.0,26.9,89,82,74,29.78,29.61,3,0,8,0.01
2013-1-18,36.5,27.0,19.0,27.4,12.5,1.0,83,55,27,30.07,29.75,11,2,16,0.04
2013-1-19,56.7,44.9,32.5,22.4,15.3,5.5,45,31,19,29.83,29.44,9,3,20,0.00
2013-1-20,46.4,36.2,24.1,30.7,15.7,-2.5,60,44,25,30.18,29.38,11,4,20,0.00
2013-1-21,27.5,22.0,12.7,18.7,8.2,-5.8,79,55,39,29.70,29.50,9,2,19,0.00
2013-1-22,18.9,10.3,6.4,1.2,-7.4,-12.5,62,44,31,29.85,28.27,11,2,17,0.00
2013-1-23,18.1,12.6,5.5,5.7,-5.0,-10.8,65,45,28,29.86,29.64,5,1,9,0.00
2013-1-24,26.8,16.9,12.2,9.4,1.0,-13.6,75,52,22,30.11,29.63,10,2,14,0.00
2013-1-25,20.1,15.8,12.9,13.2,5.0,-3.4,76,63,46,30.08,29.59,7,2,11,0.00
2013-1-26,30.4,23.3,18.3,22.9,15.5,8.2,83,72,58,30.02,29.67,7,1,11,0.00
2013-1-27,39.0,25.7,14.4,20.0,13.0,8.5,80,59,36,30.11,29.89,5,1,8,0.05
2013-1-28,49.8,41.0,31.1,49.6,38.9,17.3,99,93,54,29.90,29.61,7,2,11,0.12
2013-1-29,62.4,54.5,49.6,51.8,50.4,49.4,99,88,66,29.92,29.64,5,1,9,0.01
2013-1-30,66.6,58.3,49.8,57.8,51.4,45.4,99,79,63,29.84,29.29,11,4,20,0.79
2013-1-31,49.8,29.1,23.4,46.4,19.8,6.0,95,69,42,29.87,29.28,11,1,20,0.04
2013-2-1,23.4,16.4,10.0,19.4,2.9,-3.9,86,55,41,30.33,29.83,0,0,0,0.00
2013-2-2,25.2,17.8,9.0,20.2,9.1,-3.4,86,69,54,30.31,29.97,6,0,9,0.00
2013-2-3,28.8,23.4,18.0,21.9,16.7,8.2,86,75,61,30.04,29.84,7,1,12,0.00
2013-2-4,29.8,23.0,17.8,23.3,14.7,6.7,87,70,53,30.07,29.87,5,1,8,0.01
2013-2-5,32.9,29.1,26.4,29.2,25.4,21.7,93,86,73,29.96,29.84,57,0,57,0.00
2013-2-6,41.4,29.1,23.9,26.1,20.6,13.2,91,72,41,30.33,29.96,5,1,12,0.04
2013-2-7,45.0,32.7,21.9,27.9,21.8,14.5,75,64,48,30.30,29.98,8,3,12,0.06
2013-2-8,38.1,33.1,25.9,37.4,27.1,18.8,98,79,71,30.16,29.82,12,2,18,0.11
2013-2-9,40.5,28.1,22.6,19.2,15.3,11.1,81,60,35,30.39,30.17,5,1,8,0.00
2013-2-10,54.7,37.4,23.0,26.6,15.9,9.1,68,45,21,30.35,29.98,9,3,14,0.00
2013-2-11,65.5,48.3,37.6,47.1,35.6,26.1,99,66,25,29.98,29.70,10,3,20,0.05
2013-2-12,48.9,37.1,30.6,28.3,25.2,22.6,79,62,43,30.09,29.94,7,2,14,0.00
2013-2-13,43.0,32.6,26.4,32.0,27.5,21.8,99,82,58,29.94,29.71,3,0,5,0.00
2013-2-14,43.0,35.3,28.0,36.9,31.2,25.8,99,86,67,29.97,29.88,8,1,14,0.18
2013-2-15,43.5,36.1,27.3,36.6,28.5,24.5,95,75,53,30.07,29.93,5,1,8,0.00
2013-2-16,35.4,26.7,21.2,24.5,16.2,6.7,89,66,41,30.07,29.92,2,0,4,0.06
2013-2-17,27.1,19.7,16.0,18.4,8.3,-0.9,85,62,37,30.24,29.92,11,2,21,0.00
2013-2-18,44.8,30.3,13.6,29.8,12.3,0.7,60,48,31,30.29,29.90,9,2,14,0.00
2013-2-19,46.2,36.9,24.3,39.5,28.0,10.9,93,71,43,29.96,29.70,11,2,16,0.14
2013-2-20,25.9,20.8,18.1,15.0,9.3,3.9,77,61,43,30.21,29.96,9,1,14,0.00
2013-2-21,26.6,22.1,19.0,16.6,11.5,9.5,76,63,51,31.02,30.18,8,2,13,0.00
2013-2-22,38.1,31.3,21.9,35.5,24.4,11.7,95,76,50,30.28,30.00,8,3,12,0.01
2013-2-23,46.9,37.5,31.6,37.5,31.8,25.6,92,80,66,30.02,29.88,4,1,7,0.00
2013-2-24,33.4,30.1,27.0,26.2,21.9,17.8,85,72,57,30.15,29.89,8,1,12,0.00
2013-2-25,48.0,35.6,24.3,28.9,20.9,16.6,82,56,31,30.24,30.06,8,1,11,0.00
2013-2-26,40.8,36.2,32.5,37.5,27.0,18.4,96,71,47,30.08,29.60,12,4,21,0.66
2013-2-27,46.4,39.5,33.8,41.5,36.7,31.2,99,90,73,29.71,29.58,8,2,13,0.20
2013-2-28,35.1,33.6,31.5,32.3,30.3,28.2,95,87,82,29.83,29.65,6,1,9,0.05
2013-3-1,31.8,29.7,26.1,30.5,24.2,17.7,96,80,67,29.99,29.83,0,0,0,0.00
2013-3-2,31.3,26.8,24.6,22.3,19.1,16.2,85,72,59,29.97,29.91,8,1,11,0.01
2013-3-3,30.6,25.9,23.2,21.5,17.0,11.7,85,69,52,30.02,29.93,8,3,12,0.00
2013-3-4,43.5,29.2,21.2,19.3,15.2,12.5,77,57,31,30.12,30.01,9,2,14,0.01
2013-3-5,48.6,35.2,21.7,24.7,13.7,-11.1,73,44,21,30.85,29.69,10,2,17,0.00
2013-3-6,44.8,36.2,31.6,35.2,28.8,23.1,97,76,56,30.12,29.70,9,2,16,0.18
2013-3-7,45.0,35.9,32.5,31.1,28.4,23.8,87,75,55,30.30,30.11,8,3,12,0.00
2013-3-8,38.1,33.0,27.1,28.0,24.8,20.6,80,72,62,30.42,30.29,8,3,11,0.00
2013-3-9,61.5,43.9,24.3,32.0,24.7,19.1,87,50,23,30.42,30.19,7,2,10,0.00
2013-3-10,74.7,57.5,45.0,32.5,26.0,20.9,42,31,17,30.19,30.03,9,3,13,0.00
2013-3-11,64.9,57.1,46.8,51.5,35.0,-42.8,99,46,26,30.03,29.73,14,4,24,0.21
2013-3-12,46.8,40.9,37.6,46.5,37.9,30.6,99,89,73,29.96,29.81,7,2,10,0.01
2013-3-13,28.9,27.7,26.8,22.5,21.2,20.0,81,76,71,29.96,29.92,11,4,14,0.04
2013-3-14,42.8,31.3,24.3,20.3,17.8,14.5,74,58,35,30.03,26.95,16,3,22,0.00
2013-3-15,53.4,39.6,28.0,39.5,27.7,18.7,95,63,46,29.97,29.66,7,2,11,0.00
2013-3-16,40.8,36.6,32.4,40.4,36.1,31.1,99,98,95,29.80,29.48,7,2,11,0.05
2013-3-17,39.0,32.8,28.4,31.1,24.6,20.5,95,73,53,30.02,29.80,7,2,8,0.00
2013-3-18,41.0,34.8,30.6,39.2,31.6,22.3,99,88,67,29.99,29.53,14,5,20,0.33
2013-3-19,47.1,38.6,30.2,42.4,27.0,12.7,99,66,28,29.81,29.54,14,4,22,0.02
2013-3-20,43.0,32.4,26.2,21.3,16.6,10.2,65,52,27,29.81,28.19,14,3,21,0.00
2013-3-21,30.2,24.3,18.9,19.9,10.5,-3.5,81,57,27,29.94,29.68,9,3,14,0.00
2013-3-22,36.7,29.1,24.8,19.6,17.7,15.2,75,62,44,30.06,29.93,8,2,13,0.00
2013-3-23,51.4,35.3,22.6,25.6,20.4,16.3,78,57,28,30.08,30.01,7,2,11,0.00
2013-3-24,45.9,34.4,27.9,32.4,23.3,19.4,97,66,38,30.04,29.57,12,4,17,0.00
2013-3-25,39.7,33.9,30.9,39.3,33.4,30.7,99,98,91,29.79,29.50,9,2,14,0.37
2013-3-26,42.6,35.7,32.2,36.4,32.4,30.1,99,88,66,30.12,27.78,8,2,13,0.13
2013-3-27,45.3,36.9,32.2,35.1,29.6,23.1,99,77,46,30.19,30.10,9,2,17,0.09
2013-3-28,45.0,39.0,34.3,31.2,28.8,27.0,83,67,52,30.30,30.17,9,2,14,0.00
2013-3-29,54.3,44.4,37.4,33.1,26.1,15.4,76,52,22,30.30,30.19,8,1,11,0.00
2013-3-30,61.2,45.2,27.9,30.1,20.8,14.6,84,43,20,30.30,30.07,5,1,9,0.00
2013-3-31,51.6,47.1,44.8,49.2,37.2,17.7,99,73,32,30.07,29.78,6,2,8,0.08
2013-4-1,49.3,41.4,33.1,45.4,27.4,6.6,97,63,21,30.06,29.77,11,3,17,0.02
2013-4-2,45.9,33.7,25.5,27.2,12.3,4.1,82,43,22,30.22,30.06,9,3,16,0.00
2013-4-3,42.6,33.6,25.7,22.7,10.6,0.0,65,40,21,30.44,30.22,11,2,16,0.00
2013-4-4,57.6,40.2,23.2,17.5,12.2,6.0,63,35,19,30.80,30.02,6,2,9,0.00
2013-4-5,58.6,45.3,34.7,29.5,22.0,12.9,60,40,26,30.22,29.98,11,3,17,0.00
2013-4-6,62.2,44.3,26.6,25.1,17.2,8.2,75,39,18,30.33,30.07,8,2,11,0.00
2013-4-7,77.0,62.2,52.7,49.5,36.9,15.1,65,40,22,30.07,29.95,9,3,18,0.00
2013-4-8,140.0,64.0,50.9,99.9,48.8,42.6,74,59,47,30.09,29.92,5,1,7,0.00
2013-4-9,84.9,71.4,58.1,57.9,54.3,50.2,86,57,36,30.11,29.94,8,2,13,0.00
2013-4-10,81.7,69.9,59.7,66.7,59.7,53.4,99,72,51,30.00,29.83,11,2,15,0.37
2013-4-11,78.1,66.3,57.7,61.3,58.9,53.9,99,79,55,29.93,29.62,8,2,12,0.00
2013-4-12,66.0,57.8,45.5,63.3,51.2,34.8,99,80,52,29.88,29.53,11,3,19,0.33
2013-4-13,69.4,46.7,39.7,49.5,35.3,32.4,85,66,40,30.03,29.87,9,2,17,0.00
2013-4-14,67.8,51.3,35.6,37.2,32.6,27.8,80,52,29,30.15,30.01,7,2,10,0.00
2013-4-15,69.1,61.7,57.0,51.5,46.2,36.1,72,57,45,30.11,29.97,13,4,16,0.00
2013-4-16,82.8,65.3,55.2,61.0,56.0,50.0,99,74,46,30.21,30.05,19,2,24,1.00
2013-4-17,73.0,65.0,52.0,58.3,56.9,34.4,99,76,51,30.19,29.64,8,2,10,1.00
2013-4-18,88.3,73.4,60.8,62.7,59.1,56.1,93,64,36,29.85,29.53,13,4,21,0.00
2013-4-19,71.8,59.8,44.4,63.9,50.4,31.3,96,72,57,29.60,29.25,14,4,21,0.22
2013-4-20,50.9,42.5,36.3,34.5,27.7,22.2,89,57,35,30.11,29.59,10,3,17,0.00
2013-4-21,71.6,48.8,35.4,54.6,18.9,11.1,65,32,21,30.12,29.57,8,3,13,0.00
2013-4-22,66.4,52.9,42.3,31.4,25.0,19.1,54,36,18,29.83,29.65,11,4,16,0.00
2013-4-23,76.5,58.7,41.5,39.4,34.2,29.6,77,44,21,29.66,29.35,26,2,26,0.00
2013-4-24,71.2,56.6,40.3,60.2,46.8,36.8,99,72,47,29.55,29.15,13,3,22,0.31
2013-4-25,63.0,47.9,35.1,42.5,34.2,24.5,99,65,24,29.73,29.54,9,2,14,0.00
2013-4-26,66.6,51.7,36.9,44.7,32.5,22.1,99,56,20,29.84,29.72,6,1,10,0.00
2013-4-27,79.0,61.0,39.0,42.4,32.7,21.8,91,40,15,29.76,29.55,8,2,12,0.00
2013-4-28,63.9,57.4,54.1,57.4,49.7,40.3,99,77,45,29.55,29.33,9,3,14,0.21
2013-4-29,66.2,58.4,53.4,61.6,55.4,50.3,99,90,76,29.42,29.32,7,2,9,0.09
2013-4-30,76.8,63.9,53.1,58.2,54.4,52.1,99,74,47,29.58,29.42,11,3,14,0.00
2013-5-1,81.0,66.4,54.0,54.1,48.4,30.5,91,57,26,29.70,29.58,9,3,12,0.00
2013-5-2,82.4,67.1,53.8,44.3,33.7,21.4,55,32,11,29.75,29.60,8,3,14,0.00
2013-5-3,78.3,65.3,53.1,45.0,39.0,27.3,56,40,19,29.65,29.55,12,4,18,0.00
2013-5-4,75.0,62.0,49.1,44.1,39.5,30.0,67,46,22,29.60,29.48,11,3,16,0.00
2013-5-5,77.7,63.1,50.5,43.7,32.5,16.3,76,38,12,29.54,29.41,12,3,17,0.00
2013-5-6,74.8,61.2,48.0,55.8,47.8,36.8,84,62,46,29.48,29.40,12,3,17,0.00
2013-5-7,72.0,62.2,57.4,60.7,56.9,53.9,97,83,55,29.43,29.35,11,3,14,0.08
2013-5-8,81.5,65.7,53.8,59.1,52.4,41.1,99,67,26,29.40,29.29,8,2,11,0.18
2013-5-9,83.3,66.9,55.2,61.2,54.0,42.1,99,68,26,29.40,29.31,5,1,9,0.00
2013-5-10,79.2,64.9,59.9,64.6,59.7,53.0,99,84,55,29.41,29.21,8,2,16,0.50
2013-5-11,60.8,57.1,51.3,60.4,55.5,50.1,99,94,82,29.24,29.18,4,1,7,0.12
2013-5-12,56.7,49.5,40.1,51.3,34.1,23.7,97,58,31,29.44,28.57,9,2,16,0.00
2013-5-13,58.1,46.1,34.2,35.7,26.0,17.3,83,48,24,29.56,29.43,8,2,14,0.00
2013-5-14,67.5,51.3,34.2,41.6,34.1,-55.6,83,54,30,29.56,29.28,8,2,13,0.00
2013-5-15,90.9,71.8,55.2,63.5,56.4,40.9,78,60,37,29.29,29.14,8,2,14,0.00
2013-5-16,85.3,72.5,62.2,67.4,58.0,41.7,99,66,26,29.39,29.19,5,1,8,0.18
2013-5-17,88.2,71.7,59.7,64.6,58.3,45.6,99,67,33,29.52,29.39,4,1,9,0.00
2013-5-18,86.0,72.2,40.5,64.9,54.3,26.9,86,55,41,30.37,29.44,8,2,11,1.67
2013-5-19,80.8,70.4,60.6,65.9,63.3,59.8,99,79,59,29.94,29.81,8,2,12,0.01
2013-5-20,92.5,76.5,62.2,69.9,66.4,61.7,99,74,45,29.88,27.60,5,1,8,0.00
2013-5-21,92.1,79.4,68.2,72.3,68.3,64.7,99,72,44,29.81,29.68,8,2,11,0.02
2013-5-22,90.5,74.9,66.2,70.3,65.0,61.6,92,73,42,29.75,29.63,8,2,14,0.02
2013-5-23,80.6,65.8,49.5,68.3,62.6,49.2,99,90,56,29.74,29.61,8,2,17,0.69
2013-5-24,52.0,45.8,40.5,49.2,39.8,31.9,99,81,56,30.09,29.74,8,3,17,0.02
2013-5-25,66.7,50.2,33.8,42.2,35.0,14.1,99,61,25,30.12,30.03,10,2,16,0.00
2013-5-26,73.4,56.3,38.5,42.2,35.0,29.3,86,49,22,30.11,30.03,8,1,11,0.00
2013-5-27,65.5,56.8,43.9,50.9,43.7,35.5,93,63,42,30.09,29.92,4,1,8,0.00
2013-5-28,84.7,68.7,55.2,68.4,61.1,50.6,99,79,52,29.92,29.83,8,2,12,0.11
2013-5-29,90.0,78.8,69.8,65.5,62.7,60.3,76,59,41,29.93,29.85,7,2,14,0.00
2013-5-30,93.2,81.3,68.7,68.8,64.7,61.1,82,59,37,30.03,29.93,4,1,8,0.00
2013-5-31,92.1,81.6,70.7,67.4,65.0,61.6,87,59,39,29.97,29.83,9,1,13,0.00
2013-6-1,90.1,79.3,68.2,70.6,67.2,63.5,99,68,45,29.87,29.66,7,2,12,0.06
2013-6-2,84.6,76.3,69.1,69.8,64.8,58.0,98,70,47,29.72,29.65,7,2,11,0.02
2013-6-3,73.8,64.1,54.0,61.4,54.9,-38.5,93,73,52,29.90,29.72,49,1,53,0.00
2013-6-4,79.3,63.2,45.1,50.5,45.5,41.3,95,56,30,29.99,29.90,4,1,9,0.00
2013-6-5,89.1,71.0,54.7,63.5,55.0,47.1,81,58,40,29.97,29.77,8,2,14,0.00
2013-6-6,72.0,66.6,63.1,69.0,64.9,59.9,99,95,70,29.78,29.61,8,2,12,0.79
2013-6-7,66.6,62.7,58.6,64.7,61.2,56.6,99,95,87,29.69,29.59,7,1,11,0.00
2013-6-8,80.1,65.1,56.8,59.2,56.8,54.9,99,77,45,29.94,26.74,43,1,8,0.00
2013-6-9,88.2,73.5,59.2,67.0,61.4,57.2,96,69,40,30.00,29.85,12,2,21,0.00
2013-6-10,78.8,71.6,67.3,74.0,68.7,63.8,99,91,73,29.86,29.63,7,2,11,0.24
2013-6-11,73.8,69.7,64.6,65.8,64.4,61.5,90,83,76,30.11,29.65,2,0,6,1.98
2013-6-12,87.6,77.2,67.3,73.5,68.5,64.1,96,76,50,29.96,29.80,4,1,9,0.00
2013-6-13,76.3,67.9,61.2,74.1,64.9,56.5,99,90,73,30.12,29.66,11,3,18,0.30
2013-6-14,80.6,64.7,56.3,62.7,57.8,53.3,99,81,41,30.29,30.02,6,1,9,0.00
2013-6-15,72.7,61.5,52.9,62.4,56.0,52.3,99,84,53,30.34,29.60,3,0,5,0.00
2013-6-16,76.3,69.0,62.6,72.1,64.9,56.2,99,88,62,29.93,29.82,5,1,9,0.26
2013-6-17,90.5,76.2,65.7,71.1,64.6,56.6,99,71,36,31.36,29.82,4,1,6,0.00
2013-6-18,83.1,71.2,64.8,70.1,64.3,60.5,99,80,55,29.87,29.76,4,1,10,0.11
2013-6-19,84.0,69.2,57.4,60.5,52.0,40.3,95,59,23,30.06,29.87,7,1,11,0.00
2013-6-20,89.4,72.5,53.1,61.0,53.6,45.6,99,57,27,30.14,30.05,4,1,7,0.00
2013-6-21,91.9,76.8,58.6,65.3,58.7,54.3,98,58,31,30.17,28.57,5,1,10,0.00
2013-6-22,93.9,80.3,66.9,70.4,66.6,58.1,93,65,44,30.12,29.98,6,1,11,0.00
2013-6-23,95.2,83.1,71.8,72.6,69.2,64.8,92,65,42,30.07,29.97,4,1,8,0.00
2013-6-24,95.4,83.3,71.1,71.1,68.2,65.0,90,63,40,30.06,29.92,4,1,8,0.00
2013-6-25,93.0,75.2,67.6,70.3,68.7,54.4,99,83,47,30.02,29.89,7,1,19,0.14
2013-6-26,92.8,73.9,66.0,73.6,69.1,65.8,99,86,47,29.98,29.85,6,1,10,1.24
2013-6-27,79.3,73.3,68.2,73.8,70.0,66.4,95,89,80,29.94,29.90,5,1,10,1.75
2013-6-28,77.0,68.5,64.9,71.8,66.4,64.4,99,93,82,30.09,29.92,5,0,11,0.22
2013-6-29,85.8,72.8,60.8,67.5,64.4,60.2,99,77,48,30.12,29.98,6,1,11,0.00
2013-6-30,89.4,73.7,64.2,73.1,67.1,63.4,99,82,47,30.28,30.11,8,1,14,0.89
2013-7-1,85.5,73.1,67.1,71.9,68.3,66.8,99,86,58,30.38,30.24,6,1,11,0.12
2013-7-2,89.8,76.8,66.6,75.1,69.8,66.3,99,81,55,30.49,30.35,7,1,11,0.14
2013-7-3,91.0,78.3,72.0,71.9,69.3,65.8,87,75,46,30.59,30.48,5,1,9,0.00
2013-7-4,93.4,79.8,71.6,73.8,70.3,65.8,97,75,46,30.64,30.54,6,1,10,0.02
2013-7-5,89.2,79.4,70.7,73.2,70.6,68.2,98,76,52,30.59,30.51,5,1,8,0.00
2013-7-6,93.7,81.6,71.2,74.8,71.6,67.6,98,75,46,30.60,30.45,8,1,11,0.06
2013-7-7,83.1,76.2,70.2,75.4,71.3,69.5,98,85,69,30.54,30.44,4,1,8,0.09
2013-7-8,90.9,77.3,65.1,72.4,68.8,64.6,99,77,51,30.55,30.47,5,1,8,0.08
2013-7-9,90.1,74.8,68.4,77.1,71.7,68.1,99,91,63,30.54,29.44,6,1,9,0.30
2013-7-10,90.7,73.4,66.2,80.1,71.2,65.9,99,93,68,29.93,29.75,11,1,18,1.81
2013-7-11,81.7,71.6,64.9,71.1,63.2,58.3,99,77,51,29.91,29.81,4,1,8,0.00
2013-7-12,78.1,68.3,59.0,68.3,63.2,57.9,99,84,61,30.02,29.91,6,0,9,0.02
2013-7-13,88.2,76.0,64.2,70.6,66.9,63.3,98,75,48,30.15,30.00,5,2,9,0.00
2013-7-14,95.4,82.8,72.3,72.2,69.7,66.5,92,67,43,30.20,30.13,8,1,13,0.00
2013-7-15,98.6,85.1,72.5,73.4,71.1,67.4,95,66,38,30.25,30.16,4,0,6,0.00
2013-7-16,95.5,81.4,74.1,78.7,74.3,71.8,96,80,50,30.24,30.16,5,0,15,0.01
2013-7-17,96.6,81.8,72.7,79.7,76.0,71.8,99,84,50,30.22,30.08,4,0,10,0.00
2013-7-18,99.3,86.6,73.8,78.9,75.8,72.3,99,73,43,30.11,29.96,4,0,7,0.00
2013-7-19,97.3,84.8,73.9,78.5,74.3,69.0,96,73,44,29.97,29.79,7,1,11,0.00
2013-7-20,86.4,76.9,71.1,76.4,71.9,69.1,99,85,64,29.85,29.77,7,1,12,0.13
2013-7-21,93.0,76.8,69.8,74.8,71.0,68.9,98,84,48,29.89,29.82,6,0,10,0.01
2013-7-22,84.2,73.3,67.5,76.6,71.3,67.0,99,93,74,29.87,29.69,4,0,8,0.73
2013-7-23,89.8,73.4,64.4,72.3,68.2,64.0,99,86,47,29.71,29.63,8,1,13,0.26
2013-7-24,78.3,68.0,61.3,66.1,58.9,53.7,99,75,47,29.91,29.68,6,1,10,0.01
2013-7-25,82.2,67.9,55.0,57.3,53.9,47.6,97,65,32,29.99,29.90,5,1,9,0.00
2013-7-26,88.2,72.4,55.0,65.5,57.6,52.8,99,65,34,30.00,29.91,5,0,8,0.00
2013-7-27,77.4,69.4,65.1,71.5,65.2,57.9,99,87,65,29.92,29.76,7,1,11,0.59
2013-7-28,81.9,70.2,61.5,69.6,61.8,55.6,99,77,42,29.95,29.76,6,1,8,0.17
2013-7-29,81.7,67.6,56.8,59.4,55.9,53.2,92,68,40,30.10,29.94,7,1,10,0.00
2013-7-30,83.1,69.7,55.4,65.4,58.2,55.1,99,70,43,30.13,30.05,4,0,6,0.00
2013-7-31,85.3,70.7,61.2,70.1,64.0,59.8,98,81,48,30.06,29.87,6,1,8,0.01
2013-8-1,86.4,72.9,66.2,72.0,65.1,59.7,99,79,46,29.87,29.78,6,1,10,0.02
2013-8-2,83.7,72.0,61.7,65.3,60.4,52.0,98,70,37,29.91,29.81,5,1,8,0.00
2013-8-3,84.4,70.6,62.8,71.1,64.6,56.9,99,83,54,31.36,29.84,4,1,8,0.17
2013-8-4,80.2,68.6,57.2,70.9,57.1,52.9,99,69,42,29.97,29.89,6,1,11,3.99
2013-8-5,82.6,68.1,53.8,62.6,55.0,47.8,99,67,32,30.00,29.90,4,0,6,0.00
2013-8-6,86.5,73.0,58.8,66.8,57.6,53.4,99,62,37,29.91,29.85,6,1,10,0.00
2013-8-7,89.6,74.4,65.7,73.8,68.0,60.9,99,82,55,29.88,29.81,10,1,17,0.07
2013-8-8,89.8,81.0,68.7,77.2,73.2,68.4,99,78,60,29.86,29.79,5,1,8,0.01
2013-8-9,80.8,74.6,68.2,78.4,72.5,65.5,99,93,75,29.91,29.78,5,1,10,0.35
2013-8-10,86.9,74.4,63.9,66.8,64.7,59.9,99,74,46,29.98,29.91,4,1,7,0.00
2013-8-11,90.7,74.1,64.8,72.8,64.2,57.9,98,73,44,30.01,29.91,6,1,8,0.06
2013-8-12,89.1,77.3,65.3,71.8,66.7,62.6,99,73,43,29.95,29.77,4,1,7,0.00
2013-8-13,83.3,72.5,58.8,74.8,64.7,52.4,99,78,50,29.86,29.69,8,2,14,0.02
2013-8-14,72.0,60.7,52.0,57.4,53.0,51.2,98,77,54,30.01,29.85,6,1,9,0.00
2013-8-15,81.0,65.6,49.8,59.2,50.9,45.3,99,64,31,30.07,29.97,6,1,9,0.00
2013-8-16,85.3,69.5,54.7,60.3,55.4,49.2,98,64,34,30.05,29.98,5,1,8,0.00
2013-8-17,82.4,70.6,60.3,60.1,56.8,48.7,93,65,33,30.11,30.04,7,2,14,0.00
2013-8-18,76.3,69.0,65.1,67.6,63.6,58.6,99,83,70,30.09,30.01,4,1,8,0.02
2013-8-19,86.4,71.3,65.8,73.5,66.7,63.3,99,87,53,30.03,29.95,4,0,7,0.34
2013-8-20,91.0,73.9,59.9,67.4,62.2,57.7,99,71,35,30.07,29.99,6,0,8,0.00
2013-8-21,91.4,76.2,62.1,70.1,64.4,60.3,99,71,38,30.08,29.94,4,1,8,0.00
2013-8-22,89.2,75.6,67.3,76.6,70.3,65.7,99,84,53,29.99,29.86,5,1,7,0.26
2013-8-23,88.2,73.6,68.4,70.8,64.6,56.8,99,77,42,30.03,29.87,7,1,11,0.01
2013-8-24,86.9,71.9,59.5,63.5,59.4,56.2,95,67,43,30.17,30.03,5,1,9,0.00
2013-8-25,90.0,74.3,60.1,66.3,61.7,57.3,99,68,35,30.95,30.11,4,1,8,0.00
2013-8-26,91.8,76.4,63.9,70.3,64.7,61.2,92,70,42,30.14,29.92,4,1,8,0.00
2013-8-27,86.4,76.2,71.6,75.4,72.1,69.8,98,88,63,29.92,29.83,4,1,7,0.02
2013-8-28,83.5,74.3,70.2,77.8,72.8,69.6,99,95,77,29.84,29.71,4,1,11,0.57
2013-8-29,90.0,76.6,69.4,74.8,69.7,66.9,99,81,49,29.92,29.80,4,1,8,0.01
2013-8-30,93.4,78.8,66.9,73.6,70.4,66.7,99,78,48,29.90,29.73,5,1,8,0.00
2013-8-31,93.4,79.0,72.1,74.1,71.9,68.9,97,81,47,30.48,29.67,5,1,11,0.00
2013-9-1,84.6,74.9,71.4,74.8,72.6,70.7,98,93,68,29.74,29.67,4,1,8,0.00
2013-9-2,89.6,75.8,65.3,74.8,71.0,65.0,99,87,53,29.74,29.63,6,1,10,0.32
2013-9-3,75.6,65.9,58.5,65.0,59.9,54.1,99,82,53,29.91,27.46,6,1,9,0.01
2013-9-4,84.2,67.2,53.6,63.4,57.5,52.8,99,74,42,30.00,29.91,4,1,7,0.00
2013-9-5,78.6,67.2,57.7,64.7,56.1,45.7,97,70,42,30.08,29.94,7,2,10,0.00
2013-9-6,79.7,63.4,49.3,53.1,46.2,33.1,99,59,19,30.14,30.00,6,1,9,0.00
2013-9-7,75.9,56.1,50.2,58.0,50.8,47.4,99,84,45,30.00,29.95,2,0,3,0.00
2013-9-8,83.5,70.4,64.9,69.6,62.7,58.8,84,77,63,29.94,29.80,3,1,6,0.00
2013-9-9,87.6,70.8,60.1,75.1,66.0,58.1,99,86,61,29.98,29.89,6,1,8,0.15
2013-9-10,95.2,80.7,71.2,77.3,74.0,70.4,98,82,54,30.02,29.93,5,1,9,0.01
2013-9-11,94.5,80.3,74.7,77.4,73.9,67.5,97,82,50,30.04,29.90,6,1,8,0.01
2013-9-12,79.3,71.9,63.0,74.2,70.4,61.9,99,95,82,29.90,29.70,6,1,11,0.18
2013-9-13,68.9,59.6,53.2,62.5,55.0,47.7,99,85,61,29.91,29.70,8,2,11,0.18
2013-9-14,72.1,57.5,50.5,50.6,47.0,40.4,94,71,35,30.04,29.90,5,1,10,0.00
2013-9-15,73.4,60.7,46.4,57.5,51.6,46.1,99,75,46,30.05,29.93,4,0,8,0.00
2013-9-16,74.8,61.9,54.3,61.5,55.8,50.8,99,82,49,30.17,29.94,4,1,10,0.20
2013-9-17,73.9,58.8,46.9,53.9,48.7,44.6,99,72,40,30.25,30.11,7,2,11,0.00
2013-9-18,78.4,63.4,50.2,56.2,49.8,43.2,83,63,43,30.12,29.98,4,1,10,0.00
2013-9-19,84.6,69.7,62.6,66.9,62.0,56.4,99,79,47,30.01,29.90,4,1,8,0.00
2013-9-20,84.0,72.0,61.7,71.8,67.8,61.1,99,88,65,29.92,29.72,7,1,13,0.00
2013-9-21,70.3,64.7,57.2,69.6,63.9,-40.5,99,97,89,29.72,29.58,27,1,27,0.80
2013-9-22,66.6,57.4,53.2,57.1,51.3,44.8,99,82,49,29.89,29.68,7,1,9,0.01
2013-9-23,64.0,53.8,44.8,51.1,46.6,42.5,96,78,50,30.01,29.89,57,1,57,0.00
2013-9-24,75.0,56.0,42.6,53.9,45.3,41.9,99,72,33,29.98,29.83,5,1,8,0.00
2013-9-25,81.1,61.3,47.7,55.9,50.7,46.4,99,73,32,29.85,29.75,5,1,8,0.00
2013-9-26,82.9,64.3,50.7,57.8,51.2,41.6,99,68,25,29.95,29.81,5,1,9,0.00
2013-9-27,80.1,63.6,50.9,58.3,53.3,49.2,99,72,35,30.06,29.94,5,1,8,0.00
2013-9-28,80.6,64.6,54.0,59.5,54.6,51.6,99,73,40,30.13,30.02,8,2,11,0.00
2013-9-29,80.2,65.2,53.6,60.4,55.5,50.9,92,73,47,30.02,29.88,6,1,8,0.00
2013-9-30,74.3,64.5,58.6,63.6,60.3,55.9,97,87,66,29.93,29.86,4,0,7,0.07
2013-10-1,83.1,69.3,60.1,65.8,61.4,58.9,99,78,47,29.96,29.88,5,1,8,0.00
2013-10-2,84.6,70.8,60.6,67.8,63.7,60.2,99,80,53,29.98,29.91,4,1,6,0.00
2013-10-3,83.7,70.3,61.3,72.6,66.2,60.8,99,88,65,29.98,29.90,4,1,8,0.02
2013-10-4,86.0,71.7,64.6,71.2,67.7,64.3,99,89,52,29.99,29.91,6,0,9,0.18
2013-10-5,88.2,72.7,67.6,71.5,68.4,67.0,99,88,52,29.97,29.87,5,0,9,0.15
2013-10-6,89.1,76.1,68.4,69.4,65.9,60.3,99,73,45,29.88,29.64,8,2,14,0.00
2013-10-7,72.5,58.4,50.2,62.8,51.4,45.1,99,79,54,29.99,29.59,9,2,12,0.35
2013-10-8,71.8,56.1,43.7,56.9,46.8,42.4,99,74,37,30.16,29.99,7,1,10,0.00
2013-10-9,73.9,57.5,44.8,49.2,44.5,39.0,99,67,31,30.19,30.09,7,1,11,0.00
2013-10-10,77.5,60.4,48.0,51.1,44.9,38.6,88,59,32,30.09,29.96,6,1,8,0.00
2013-10-11,62.6,57.8,52.2,59.9,54.6,49.0,99,89,78,29.97,29.92,7,1,8,0.04
2013-10-12,77.0,64.9,56.1,65.3,59.0,53.5,92,82,65,30.03,29.92,4,1,11,0.00
2013-10-13,73.8,64.7,58.5,62.8,60.0,57.0,97,85,67,30.12,30.01,6,1,8,0.00
2013-10-14,62.8,60.4,57.2,61.0,59.5,56.9,99,97,89,30.17,30.09,4,1,5,0.02
2013-10-15,72.9,65.7,57.2,63.0,60.1,56.8,99,83,69,32.84,29.83,5,1,8,4.48
2013-10-16,64.4,61.0,56.5,63.0,59.3,56.1,99,94,84,29.84,29.73,6,2,8,0.31
2013-10-17,62.8,55.6,49.8,61.9,53.4,49.6,99,93,74,29.77,29.55,8,1,12,0.39
2013-10-18,69.3,54.1,44.8,49.9,45.1,39.7,99,75,36,29.87,29.74,5,1,9,0.01
2013-10-19,55.6,50.1,44.8,50.4,44.9,42.0,99,83,71,29.82,29.59,6,1,11,0.06
2013-10-20,72.7,54.0,38.7,62.8,39.8,37.4,99,60,42,30.02,29.92,5,2,10,0.07
2013-10-21,71.8,52.2,43.7,41.7,38.3,30.6,83,62,22,29.99,29.79,4,2,8,0.00
2013-10-22,58.3,49.7,40.6,50.3,37.6,24.3,99,67,31,29.91,29.78,6,1,11,0.15
2013-10-23,44.1,40.7,36.1,42.0,37.9,32.1,99,91,63,29.87,29.69,6,1,10,0.13
2013-10-24,51.1,39.7,34.2,38.7,33.2,26.1,97,79,46,30.07,29.85,7,1,11,0.00
2013-10-25,53.6,40.2,32.0,40.4,32.3,26.5,99,76,38,30.26,30.07,5,1,8,0.01
2013-10-26,52.9,42.6,32.7,34.0,28.7,22.6,85,61,33,30.17,29.83,8,2,14,0.00
2013-10-27,60.1,45.2,34.7,42.4,33.5,27.3,99,67,30,30.03,29.91,6,1,8,0.00
2013-10-28,67.5,47.9,33.8,45.9,34.1,25.8,96,64,24,30.22,30.02,4,0,6,0.00
2013-10-29,65.1,49.8,36.1,48.0,39.0,34.5,99,70,34,30.30,30.19,4,0,7,0.00
2013-10-30,67.8,56.2,45.3,57.2,47.6,39.6,98,74,46,30.19,30.04,4,1,8,0.00
2013-10-31,68.7,62.2,57.7,60.9,58.9,55.8,99,90,65,30.04,29.43,11,3,20,0.22
2013-11-1,68.7,60.4,55.4,60.6,49.6,-42.8,99,70,1,29.66,29.32,11,2,20,0.12
2013-11-2,58.5,50.1,43.7,48.4,44.8,42.1,98,83,58,29.90,29.62,7,1,12,0.02
2013-11-3,49.1,41.4,35.8,43.5,38.9,33.5,99,92,61,30.23,29.90,4,1,7,0.00
2013-11-4,48.4,38.9,29.7,26.7,23.1,16.7,81,55,28,30.44,30.33,4,2,8,0.00
2013-11-5,51.4,42.1,39.6,31.4,29.1,26.2,65,60,47,30.42,30.34,4,2,7,0.00
2013-11-6,74.1,62.1,45.0,59.0,51.0,29.5,99,69,45,30.25,29.87,6,2,10,0.08
2013-11-7,57.7,46.1,38.7,57.5,40.6,25.5,99,82,53,30.05,29.81,10,2,20,0.51
2013-11-8,51.1,38.9,32.2,34.4,28.2,20.1,87,66,35,30.20,30.00,6,1,11,0.00
2013-11-9,61.7,45.8,30.9,30.9,24.4,16.5,82,49,20,30.19,29.89,8,2,17,0.00
2013-11-10,53.2,44.9,36.3,39.3,33.0,27.6,78,63,42,30.20,29.90,11,2,15,0.00
2013-11-11,52.3,41.6,32.7,40.0,31.2,25.2,99,69,40,30.19,29.97,8,1,13,0.01
2013-11-12,39.4,30.8,26.8,33.5,25.8,16.4,99,83,46,30.38,30.03,8,1,12,0.07
2013-11-13,43.7,31.7,23.5,27.4,22.1,17.7,96,70,36,30.43,30.27,7,1,11,0.01
2013-11-14,54.7,39.3,28.0,24.8,19.1,13.2,75,48,21,30.27,30.09,6,2,12,0.00
2013-11-15,60.4,48.0,38.5,36.8,23.7,15.8,56,40,20,30.13,30.05,8,2,11,0.00
2013-11-16,62.6,53.8,42.6,52.2,46.5,36.6,99,77,57,30.16,29.96,6,2,9,0.00
2013-11-17,61.0,57.5,53.6,60.4,55.7,46.7,99,94,65,29.97,29.49,13,3,120,0.65
2013-11-18,60.1,49.6,38.7,47.2,35.5,26.5,83,59,36,29.98,29.57,11,3,17,0.00
2013-11-19,39.4,35.5,29.1,28.3,24.6,21.5,78,64,54,31.06,29.98,10,2,117,0.00
2013-11-20,50.7,38.1,28.4,25.1,16.8,6.9,80,47,21,30.37,30.26,10,3,14,0.00
2013-11-21,57.9,46.4,35.8,41.9,29.8,15.6,67,53,40,30.33,30.15,7,2,12,0.00
2013-11-22,53.4,49.6,36.9,52.5,47.6,-45.6,99,93,68,30.17,29.99,24,2,25,0.13
2013-11-23,41.4,31.9,20.3,34.2,22.9,5.2,90,71,42,30.25,30.05,11,4,24,0.01
2013-11-24,27.3,20.6,16.3,16.3,7.4,-0.6,77,57,30,30.42,30.24,14,4,15,0.00
2013-11-25,36.9,26.2,16.0,17.0,4.5,-0.4,62,42,21,30.38,30.12,11,3,11,0.00
2013-11-26,36.0,33.1,31.6,34.0,32.8,20.5,99,99,53,30.12,29.65,8,1,8,0.66
2013-11-27,32.5,28.4,23.0,32.3,24.9,14.9,99,87,67,30.03,29.64,9,0,9,0.01
2013-11-28,32.4,26.0,17.6,21.9,16.1,9.9,80,66,49,30.31,30.03,8,1,8,0.02
2013-11-29,39.7,30.6,23.4,28.8,19.8,15.5,89,65,42,30.54,30.30,7,2,100,0.09
2013-11-30,41.9,32.7,25.7,25.9,21.2,17.7,72,63,47,30.50,30.12,13,4,13,0.06
2013-12-1,46.9,41.0,34.9,31.6,29.0,25.4,69,62,51,30.85,29.89,11,2,11,0.01
2013-12-2,54.7,42.8,38.5,37.6,34.5,30.7,95,73,51,29.90,29.75,5,1,5,0.00
2013-12-3,60.6,45.3,36.9,45.2,40.0,35.7,99,83,53,29.84,29.77,5,1,5,0.01
2013-12-4,61.3,51.3,40.8,49.2,44.0,37.4,92,77,59,29.91,29.80,11,3,11,0.00
2013-12-5,62.4,58.0,46.4,59.5,54.4,45.6,99,88,75,29.91,29.79,14,4,14,0.44
2013-12-6,40.1,29.3,0.0,45.6,29.1,27.5,99,97,94,30.04,0.00,2,0,2,0.44
2013-12-7,35.4,26.7,19.4,27.5,19.6,11.3,97,75,47,30.33,30.01,0,0,0,0.00
2013-12-8,31.3,23.9,0.0,31.0,18.1,10.8,99,78,64,30.32,29.83,0,0,0,0.00
2013-12-9,38.1,34.6,29.8,37.9,31.6,22.9,99,89,72,29.92,29.73,10,3,10,0.07
2013-12-10,34.9,26.8,22.3,23.5,15.8,2.2,92,65,32,30.02,29.80,9,0,9,0.01
2013-12-11,31.5,25.0,18.7,21.4,11.6,6.4,85,57,41,30.11,29.99,12,2,12,0.00
2013-12-12,27.7,19.7,11.7,12.0,0.5,-6.3,70,44,25,30.22,30.00,11,4,11,0.00
2013-12-13,40.5,28.4,20.3,16.7,8.8,-1.6,55,44,31,30.03,29.95,8,2,8,0.00
2013-12-14,38.7,33.5,31.3,38.4,26.7,15.0,99,78,49,30.01,29.44,14,4,14,0.47
2013-12-15,38.5,31.7,26.8,38.2,28.8,21.6,99,89,75,29.67,29.41,12,1,12,0.02
2013-12-16,29.3,23.5,0.0,23.9,14.1,8.2,82,67,52,30.01,29.87,0,0,0,0.02
2013-12-17,35.6,31.0,25.3,32.4,26.3,21.0,99,83,62,29.88,29.77,9,2,9,0.05
2013-12-18,30.7,27.6,24.3,23.4,19.2,14.5,82,71,59,30.04,29.88,9,3,10,0.00
2013-12-19,55.6,42.5,27.9,34.9,25.2,16.2,68,51,34,29.96,29.88,11,3,11,0.00
2013-12-20,55.6,51.9,46.9,51.5,38.1,23.5,95,62,37,29.88,29.77,12,4,12,0.04
2013-12-21,61.0,58.3,55.2,60.4,56.3,50.3,99,93,79,30.43,29.53,13,4,13,0.50
2013-12-22,69.4,59.9,53.6,60.7,55.4,46.9,98,85,68,29.85,29.44,25,5,25,0.26
2013-12-23,53.6,39.1,30.9,47.6,34.1,19.1,99,83,61,30.13,29.83,17,3,17,0.08
2013-12-24,31.1,23.3,14.2,22.2,11.1,-0.8,85,60,30,30.35,30.07,4,0,4,0.00
2013-12-25,27.9,20.7,12.2,21.9,8.3,2.8,82,59,46,30.34,30.06,0,0,0,0.00
2013-12-26,41.5,31.1,19.0,29.1,21.1,-44.4,97,69,4,30.19,29.97,14,2,14,0.08
2013-12-27,48.2,35.4,-10.1,26.5,20.3,-13.7,83,54,37,30.21,30.11,97,3,97,0.00
2013-12-28,57.6,44.0,36.1,28.6,23.2,17.5,56,44,29,30.11,29.91,9,3,9,0.00
2013-12-29,44.8,41.6,39.4,41.8,35.2,18.7,99,82,35,29.91,29.54,9,3,9,0.53
2013-12-30,40.1,27.1,22.1,39.6,20.3,12.0,98,76,62,30.02,29.70,14,1,14,0.01
2013-12-31,26.1,24.2,22.5,19.4,15.2,9.7,80,68,54,30.14,29.91,0,0,0,0.00
2014-1-1,40.5,30.4,25.2,25.7,20.4,15.4,76,66,51,30.15,29.89,29,2,29,0.00
2014-1-2,30.7,24.4,10.9,27.5,19.4,4.2,94,81,73,29.91,29.55,14,4,14,0.00